Time;durP1;ratioP1;P1;durP2;ratioP2;P2;SDS_P1;SDS_P2;PMS_P1;PMS_P2;Temp;Humidity;BMP_temperature;BMP_pressure;BME280_temperature;BME280_humidity;BME280_pressure;Samples;Min_cycle;Max_cycle;Signal;HPM_P1;HPM_P2
2024/03/15 00:00:41;;;;;;;2.75;2.03;;;;;;;;;;4974144;28;20054;-80
2024/03/15 00:03:06;;;;;;;2.75;2.05;;;;;;;;;;4979473;28;20080;-80
2024/03/15 00:05:32;;;;;;;2.70;2.03;;;;;;;;;;4996116;28;20042;-80
2024/03/15 00:07:59;;;;;;;2.85;2.17;;;;;;;;;;4971785;28;20049;-81
2024/03/15 00:10:25;;;;;;;3.15;2.05;;;;;;;;;;4996422;28;20038;-81
2024/03/15 00:12:51;;;;;;;2.90;2.20;;;;;;;;;;4992094;28;20120;-80
2024/03/15 00:15:18;;;;;;;2.67;1.88;;;;;;;;;;4999361;28;20054;-81
2024/03/15 00:17:43;;;;;;;2.58;2.00;;;;;;;;;;4978298;28;20052;-81
2024/03/15 00:20:11;;;;;;;2.42;2.00;;;;;;;;;;4981963;28;20030;-80
2024/03/15 00:22:36;;;;;;;2.80;2.13;;;;;;;;;;4980924;28;20070;-80
2024/03/15 00:25:01;;;;;;;3.15;1.98;;;;;;;;;;4948135;28;20416;-80
2024/03/15 00:27:27;;;;;;;2.67;2.22;;;;;;;;;;4967315;28;20196;-80
2024/03/15 00:29:52;;;;;;;2.90;2.00;;;;;;;;;;4946502;28;20039;-80
2024/03/15 00:32:17;;;;;;;2.67;2.22;;;;;;;;;;4959411;28;20121;-80
2024/03/15 00:34:43;;;;;;;2.60;2.13;;;;;;;;;;4975318;28;20420;-80
2024/03/15 00:37:08;;;;;;;2.28;1.75;;;;;;;;;;4973103;28;20097;-81
2024/03/15 00:39:34;;;;;;;2.55;1.98;;;;;;;;;;4966109;28;20056;-80
2024/03/15 00:41:59;;;;;;;3.08;2.13;;;;;;;;;;4974256;28;20092;-80
2024/03/15 00:44:24;;;;;;;2.55;2.20;;;;;;;;;;4959632;28;20531;-81
2024/03/15 00:46:50;;;;;;;2.22;1.73;;;;;;;;;;4986400;28;20041;-80
2024/03/15 00:49:16;;;;;;;3.13;2.10;;;;;;;;;;4966663;28;20588;-80
2024/03/15 00:51:41;;;;;;;2.97;2.30;;;;;;;;;;4953824;28;20085;-80
2024/03/15 00:54:06;;;;;;;2.60;2.15;;;;;;;;;;4989988;28;20474;-80
2024/03/15 00:56:32;;;;;;;2.40;1.85;;;;;;;;;;4973345;28;20101;-80
2024/03/15 00:58:57;;;;;;;2.78;2.10;;;;;;;;;;4984276;28;20039;-80
2024/03/15 01:01:22;;;;;;;3.00;2.30;;;;;;;;;;4962763;28;20043;-81
2024/03/15 01:03:48;;;;;;;2.63;2.10;;;;;;;;;;4980706;28;20035;-80
2024/03/15 01:06:14;;;;;;;2.97;2.20;;;;;;;;;;4986157;28;20114;-80
2024/03/15 01:08:41;;;;;;;3.20;2.20;;;;;;;;;;4970920;28;20062;-81
2024/03/15 01:11:07;;;;;;;3.15;2.20;;;;;;;;;;4965808;28;20034;-80
2024/03/15 01:13:36;;;;;;;2.85;2.28;;;;;;;;;;4982731;28;20034;-81
2024/03/15 01:16:02;;;;;;;3.40;2.25;;;;;;;;;;4983771;28;20042;-80
2024/03/15 01:18:27;;;;;;;3.22;2.30;;;;;;;;;;4979401;28;20081;-81
2024/03/15 01:20:53;;;;;;;2.80;2.05;;;;;;;;;;4957048;28;20096;-80
2024/03/15 01:23:19;;;;;;;2.42;2.13;;;;;;;;;;4993437;28;20031;-80
2024/03/15 01:25:45;;;;;;;2.72;2.20;;;;;;;;;;4994016;28;20915;-81
2024/03/15 01:28:11;;;;;;;3.13;1.90;;;;;;;;;;4988926;28;20403;-80
2024/03/15 01:30:37;;;;;;;3.25;2.15;;;;;;;;;;4954484;28;20061;-80
2024/03/15 01:33:02;;;;;;;3.33;2.30;;;;;;;;;;4959280;28;20125;-80
2024/03/15 01:35:33;;;;;;;2.33;2.05;;;;;;;;;;4962802;28;20050;-80
2024/03/15 01:38:05;;;;;;;2.95;2.35;;;;;;;;;;4994987;28;20034;-80
2024/03/15 01:40:31;;;;;;;2.80;2.40;;;;;;;;;;4975289;28;20045;-80
2024/03/15 01:42:56;;;;;;;2.85;2.28;;;;;;;;;;4992448;28;20030;-80
2024/03/15 01:45:22;;;;;;;2.38;1.90;;;;;;;;;;4976518;28;20073;-80
2024/03/15 01:47:48;;;;;;;2.63;1.98;;;;;;;;;;4978151;28;20031;-80
2024/03/15 01:50:13;;;;;;;2.53;2.10;;;;;;;;;;4965532;28;20019;-80
2024/03/15 01:52:41;;;;;;;2.90;2.38;;;;;;;;;;4990550;28;20049;-80
2024/03/15 01:55:07;;;;;;;2.78;2.15;;;;;;;;;;4979559;28;20038;-80
2024/03/15 01:57:33;;;;;;;2.55;2.08;;;;;;;;;;4983853;28;20044;-81
2024/03/15 02:00:00;;;;;;;3.53;2.42;;;;;;;;;;4969462;28;20057;-80
2024/03/15 02:02:28;;;;;;;3.22;2.25;;;;;;;;;;4979570;28;20027;-80
2024/03/15 02:04:56;;;;;;;2.80;2.38;;;;;;;;;;4968005;28;20034;-80
2024/03/15 02:07:28;;;;;;;2.78;2.17;;;;;;;;;;4978560;28;20057;-81
2024/03/15 02:09:57;;;;;;;3.85;2.53;;;;;;;;;;4990756;28;20038;-80
2024/03/15 02:12:26;;;;;;;3.38;2.67;;;;;;;;;;4972566;28;20034;-81
2024/03/15 02:14:51;;;;;;;2.85;2.20;;;;;;;;;;4977286;28;20047;-81
2024/03/15 02:17:17;;;;;;;3.38;2.47;;;;;;;;;;4977638;28;20037;-80
2024/03/15 02:19:44;;;;;;;4.07;2.55;;;;;;;;;;4971832;28;20046;-80
2024/03/15 02:22:09;;;;;;;2.53;2.10;;;;;;;;;;4978497;28;20061;-80
2024/03/15 02:24:36;;;;;;;3.17;2.40;;;;;;;;;;4984786;28;20046;-81
2024/03/15 02:27:02;;;;;;;3.30;2.83;;;;;;;;;;4993673;28;20042;-81
2024/03/15 02:29:27;;;;;;;3.33;2.58;;;;;;;;;;4993624;28;20034;-79
2024/03/15 02:31:53;;;;;;;3.05;2.22;;;;;;;;;;4995151;28;20053;-80
2024/03/15 02:34:18;;;;;;;3.30;2.58;;;;;;;;;;5002999;28;20056;-79
2024/03/15 02:36:44;;;;;;;2.97;2.45;;;;;;;;;;4992255;28;20038;-80
2024/03/15 02:39:09;;;;;;;2.95;2.38;;;;;;;;;;4975430;28;20027;-80
2024/03/15 02:41:35;;;;;;;3.97;2.88;;;;;;;;;;4959614;28;20026;-80
2024/03/15 02:44:00;;;;;;;3.38;2.65;;;;;;;;;;4979622;28;20031;-81
2024/03/15 02:46:26;;;;;;;2.65;2.28;;;;;;;;;;4984843;28;20077;-80
2024/03/15 02:48:51;;;;;;;3.60;2.60;;;;;;;;;;4982321;28;20415;-80
2024/03/15 02:51:16;;;;;;;2.63;2.25;;;;;;;;;;4967893;28;20352;-80
2024/03/15 02:53:43;;;;;;;3.20;2.50;;;;;;;;;;4972379;28;20039;-80
2024/03/15 02:56:09;;;;;;;3.22;2.40;;;;;;;;;;4958215;28;20042;-81
2024/03/15 02:58:35;;;;;;;3.90;2.40;;;;;;;;;;4988357;28;20400;-80
2024/03/15 03:01:01;;;;;;;3.30;2.40;;;;;;;;;;4963448;28;20185;-80
2024/03/15 03:03:26;;;;;;;2.88;2.30;;;;;;;;;;4968264;28;20118;-80
2024/03/15 03:05:52;;;;;;;2.65;2.30;;;;;;;;;;4982063;28;20052;-79
2024/03/15 03:08:17;;;;;;;3.40;2.50;;;;;;;;;;4962566;28;20043;-79
2024/03/15 03:10:42;;;;;;;3.33;2.50;;;;;;;;;;4983912;28;20035;-79
2024/03/15 03:13:08;;;;;;;3.33;2.42;;;;;;;;;;4981092;28;20039;-79
2024/03/15 03:15:33;;;;;;;3.13;2.55;;;;;;;;;;4982412;28;20050;-79
2024/03/15 03:17:59;;;;;;;3.00;2.67;;;;;;;;;;4982043;28;20121;-80
2024/03/15 03:20:28;;;;;;;3.13;2.50;;;;;;;;;;4971526;28;20039;-80
2024/03/15 03:22:54;;;;;;;3.10;2.45;;;;;;;;;;4976627;28;20030;-80
2024/03/15 03:25:20;;;;;;;2.83;2.40;;;;;;;;;;4964834;28;20038;-80
2024/03/15 03:27:48;;;;;;;3.17;2.65;;;;;;;;;;4972627;28;20038;-80
2024/03/15 03:30:15;;;;;;;3.03;2.42;;;;;;;;;;4952724;28;20030;-80
2024/03/15 03:32:41;;;;;;;3.97;2.78;;;;;;;;;;4982226;28;20500;-80
2024/03/15 03:35:07;;;;;;;3.55;2.60;;;;;;;;;;4959654;28;20049;-80
2024/03/15 03:37:32;;;;;;;3.15;2.63;;;;;;;;;;4983149;28;20034;-80
2024/03/15 03:39:58;;;;;;;3.53;2.80;;;;;;;;;;4989047;28;20052;-80
2024/03/15 03:42:25;;;;;;;4.30;2.60;;;;;;;;;;4974789;28;20601;-81
2024/03/15 03:44:50;;;;;;;3.08;2.78;;;;;;;;;;4974891;28;20125;-80
2024/03/15 03:47:15;;;;;;;3.90;2.80;;;;;;;;;;4974677;28;20094;-80
2024/03/15 03:49:41;;;;;;;3.40;2.67;;;;;;;;;;4965158;28;20043;-80
2024/03/15 03:52:07;;;;;;;3.05;2.60;;;;;;;;;;4958426;28;20162;-80
2024/03/15 03:54:32;;;;;;;3.60;2.63;;;;;;;;;;4974563;28;20054;-80
2024/03/15 03:56:58;;;;;;;3.17;2.88;;;;;;;;;;4956830;28;20039;-80
2024/03/15 03:59:23;;;;;;;3.60;2.90;;;;;;;;;;4963616;28;20125;-80
2024/03/15 04:01:50;;;;;;;2.95;2.55;;;;;;;;;;4962490;28;21222;-80
2024/03/15 04:04:15;;;;;;;3.47;2.90;;;;;;;;;;4953421;28;20034;-80
2024/03/15 04:06:45;;;;;;;3.15;2.45;;;;;;;;;;4956111;28;20041;-81
2024/03/15 04:09:11;;;;;;;4.00;2.83;;;;;;;;;;4977251;28;20089;-81
2024/03/15 04:11:38;;;;;;;3.20;2.70;;;;;;;;;;4964247;28;20031;-81
2024/03/15 04:14:03;;;;;;;3.78;2.60;;;;;;;;;;4957626;28;20058;-80
2024/03/15 04:16:29;;;;;;;3.60;2.60;;;;;;;;;;4987275;28;20038;-80
2024/03/15 04:18:54;;;;;;;3.40;2.70;;;;;;;;;;4957992;28;20196;-80
2024/03/15 04:21:21;;;;;;;3.63;2.80;;;;;;;;;;4970968;28;20030;-80
2024/03/15 04:23:48;;;;;;;3.58;2.67;;;;;;;;;;4963262;28;20061;-80
2024/03/15 04:26:15;;;;;;;3.38;2.78;;;;;;;;;;4955457;28;20039;-80
2024/03/15 04:28:41;;;;;;;3.20;2.45;;;;;;;;;;4965786;28;20019;-80
2024/03/15 04:31:07;;;;;;;3.53;2.78;;;;;;;;;;4991302;28;20030;-80
2024/03/15 04:33:32;;;;;;;3.25;2.67;;;;;;;;;;4962282;28;20093;-81
2024/03/15 04:36:04;;;;;;;3.97;3.20;;;;;;;;;;4971951;28;20034;-79
2024/03/15 04:38:29;;;;;;;3.25;2.90;;;;;;;;;;4958535;28;20019;-80
2024/03/15 04:40:54;;;;;;;3.85;3.00;;;;;;;;;;4954226;28;20109;-81
2024/03/15 04:43:20;;;;;;;3.58;2.88;;;;;;;;;;4960143;28;20487;-80
2024/03/15 04:45:45;;;;;;;4.13;3.00;;;;;;;;;;4982908;28;20029;-81
2024/03/15 04:48:10;;;;;;;3.55;2.80;;;;;;;;;;4984578;28;20034;-81
2024/03/15 04:50:36;;;;;;;3.28;2.97;;;;;;;;;;4988802;28;20506;-80
2024/03/15 04:53:02;;;;;;;3.88;2.90;;;;;;;;;;4966721;28;20475;-81
2024/03/15 04:55:28;;;;;;;4.65;3.20;;;;;;;;;;4984709;28;20051;-80
2024/03/15 04:57:53;;;;;;;3.97;3.20;;;;;;;;;;4958380;28;20020;-80
2024/03/15 05:00:19;;;;;;;3.85;3.10;;;;;;;;;;4966997;28;20101;-80
2024/03/15 05:02:44;;;;;;;3.63;3.00;;;;;;;;;;4988075;28;20026;-80
2024/03/15 05:05:10;;;;;;;3.55;3.20;;;;;;;;;;4986650;28;20034;-80
2024/03/15 05:07:35;;;;;;;3.78;3.00;;;;;;;;;;4985594;28;20018;-78
2024/03/15 05:10:00;;;;;;;4.00;3.00;;;;;;;;;;4991547;28;20030;-83
2024/03/15 05:12:26;;;;;;;4.05;3.05;;;;;;;;;;4967656;28;20029;-91
2024/03/15 05:14:51;;;;;;;3.33;2.80;;;;;;;;;;4972761;28;20046;-78
2024/03/15 05:17:16;;;;;;;5.00;3.00;;;;;;;;;;4964311;28;20050;-78
2024/03/15 05:19:42;;;;;;;3.88;3.10;;;;;;;;;;4988601;28;20042;-77
2024/03/15 05:22:07;;;;;;;3.40;2.95;;;;;;;;;;4978862;28;20097;-79
2024/03/15 05:24:32;;;;;;;3.17;2.63;;;;;;;;;;4972934;28;20042;-83
2024/03/15 05:26:58;;;;;;;3.13;2.70;;;;;;;;;;4982783;28;20068;-86
2024/03/15 05:29:23;;;;;;;3.58;2.90;;;;;;;;;;4966210;28;20098;-88
2024/03/15 05:31:48;;;;;;;5.30;2.80;;;;;;;;;;4972273;28;20484;-82
2024/03/15 05:34:14;;;;;;;3.70;2.45;;;;;;;;;;4986511;28;20054;-84
2024/03/15 05:36:40;;;;;;;3.05;2.50;;;;;;;;;;4974014;28;20114;-81
2024/03/15 05:39:10;;;;;;;3.58;2.45;;;;;;;;;;4980122;28;20476;-80
2024/03/15 05:41:38;;;;;;;3.85;2.80;;;;;;;;;;4968491;28;20030;-82
2024/03/15 05:44:05;;;;;;;3.30;2.53;;;;;;;;;;4958947;28;20031;-82
2024/03/15 05:46:32;;;;;;;4.45;2.80;;;;;;;;;;4992473;28;20027;-80
2024/03/15 05:49:00;;;;;;;4.00;3.05;;;;;;;;;;4992410;28;20037;-83
2024/03/15 05:51:26;;;;;;;3.72;2.90;;;;;;;;;;4999087;28;20116;-80
2024/03/15 05:53:51;;;;;;;3.70;2.70;;;;;;;;;;4996513;28;20042;-85
2024/03/15 05:56:18;;;;;;;3.72;2.75;;;;;;;;;;4996052;28;20030;-83
2024/03/15 05:58:44;;;;;;;3.15;2.45;;;;;;;;;;4976694;28;20502;-79
2024/03/15 06:01:09;;;;;;;3.00;2.40;;;;;;;;;;4981695;28;20058;-82
2024/03/15 06:03:35;;;;;;;3.33;2.45;;;;;;;;;;4980615;28;20049;-85
2024/03/15 06:06:07;;;;;;;3.53;2.67;;;;;;;;;;4981888;28;20042;-81
2024/03/15 06:08:33;;;;;;;4.32;2.53;;;;;;;;;;4995166;28;20133;-86
2024/03/15 06:10:59;;;;;;;3.55;2.67;;;;;;;;;;4971462;28;20045;-80
2024/03/15 06:13:25;;;;;;;3.90;2.50;;;;;;;;;;4967156;28;20038;-84
2024/03/15 06:15:50;;;;;;;3.50;2.45;;;;;;;;;;4967928;28;20073;-87
2024/03/15 06:18:16;;;;;;;3.25;2.70;;;;;;;;;;4986047;28;20042;-79
2024/03/15 06:20:41;;;;;;;3.67;2.58;;;;;;;;;;4982451;28;20038;-79
2024/03/15 06:23:07;;;;;;;4.05;2.80;;;;;;;;;;4984009;28;20137;-82
2024/03/15 06:25:32;;;;;;;3.53;2.65;;;;;;;;;;4984127;28;20058;-81
2024/03/15 06:28:06;;;;;;;3.85;2.80;;;;;;;;;;4984791;28;20026;-81
2024/03/15 06:30:33;;;;;;;4.35;2.97;;;;;;;;;;4969698;28;20030;-82
2024/03/15 06:32:59;;;;;;;4.32;2.90;;;;;;;;;;4989591;28;20026;-78
2024/03/15 06:35:27;;;;;;;4.00;3.03;;;;;;;;;;4969677;28;20050;-87
2024/03/15 06:37:57;;;;;;;4.05;2.88;;;;;;;;;;4952154;28;21951;-83
2024/03/15 06:40:45;;;;;;;3.47;2.67;;;;;;;;;;4974110;28;20470;-81
2024/03/15 06:48:17;;;;;;;4.50;2.72;;;;;;;;;;4982178;28;20854;-78
2024/03/15 06:53:35;;;;;;;5.53;3.05;;;;;;;;;;4962301;28;20029;-79
2024/03/15 06:56:02;;;;;;;3.30;2.78;;;;;;;;;;4964060;28;20113;-79
2024/03/15 06:58:27;;;;;;;5.05;2.63;;;;;;;;;;4981808;28;20026;-78
2024/03/15 07:00:53;;;;;;;3.97;2.58;;;;;;;;;;4984790;28;20042;-77
2024/03/15 07:03:18;;;;;;;14.70;10.13;;;;;;;;;;4963261;28;20047;-77
2024/03/15 07:05:44;;;;;;;5.60;4.32;;;;;;;;;;4981633;28;20027;-77
2024/03/15 07:08:09;;;;;;;10.05;6.20;;;;;;;;;;4986832;28;20501;-75
2024/03/15 07:10:34;;;;;;;5.05;3.33;;;;;;;;;;4963208;28;20446;-75
2024/03/15 07:13:01;;;;;;;6.93;3.25;;;;;;;;;;4962756;28;20490;-81
2024/03/15 07:15:27;;;;;;;4.40;3.00;;;;;;;;;;4983994;28;20828;-79
2024/03/15 07:17:52;;;;;;;3.85;3.17;;;;;;;;;;4981858;28;20015;-76
2024/03/15 07:20:18;;;;;;;5.25;3.15;;;;;;;;;;4982179;28;20022;-75
2024/03/15 07:22:43;;;;;;;4.40;3.10;;;;;;;;;;4982615;28;20472;-75
2024/03/15 07:25:10;;;;;;;4.50;3.38;;;;;;;;;;4982584;28;20019;-75
2024/03/15 07:27:37;;;;;;;4.35;3.08;;;;;;;;;;4982667;28;20049;-76
2024/03/15 07:30:04;;;;;;;5.35;3.08;;;;;;;;;;4988281;28;20643;-81
2024/03/15 07:32:30;;;;;;;4.68;3.13;;;;;;;;;;4962249;28;20027;-77
2024/03/15 07:34:55;;;;;;;3.85;2.80;;;;;;;;;;4968546;28;20027;-79
2024/03/15 07:37:20;;;;;;;5.13;3.03;;;;;;;;;;4964166;28;20156;-76
2024/03/15 07:39:46;;;;;;;4.18;2.80;;;;;;;;;;4985028;28;20030;-75
2024/03/15 07:42:11;;;;;;;3.22;2.45;;;;;;;;;;4979898;28;20459;-75
2024/03/15 07:44:37;;;;;;;4.88;3.00;;;;;;;;;;4981233;28;20026;-78
2024/03/15 07:47:02;;;;;;;5.07;2.88;;;;;;;;;;4961232;28;20085;-77
2024/03/15 07:49:28;;;;;;;4.50;3.20;;;;;;;;;;4983116;28;20026;-76
2024/03/15 07:51:53;;;;;;;4.35;3.22;;;;;;;;;;4986725;28;20015;-75
2024/03/15 07:54:23;;;;;;;4.10;2.85;;;;;;;;;;4980480;28;20034;-76
2024/03/15 07:56:48;;;;;;;4.03;2.67;;;;;;;;;;4983548;28;20031;-76
2024/03/15 07:59:14;;;;;;;4.03;2.80;;;;;;;;;;4966734;28;20258;-76
2024/03/15 08:01:41;;;;;;;3.30;2.67;;;;;;;;;;4986434;28;20046;-76
2024/03/15 08:04:08;;;;;;;4.50;2.92;;;;;;;;;;4966323;28;20586;-77
2024/03/15 08:06:34;;;;;;;3.53;3.00;;;;;;;;;;4983982;28;20386;-76
2024/03/15 08:08:59;;;;;;;3.70;2.80;;;;;;;;;;4986407;28;20097;-76
2024/03/15 08:11:25;;;;;;;3.00;2.30;;;;;;;;;;4985055;28;20448;-75
2024/03/15 08:13:50;;;;;;;3.95;3.00;;;;;;;;;;4989034;28;20050;-75
2024/03/15 08:16:18;;;;;;;3.83;2.85;;;;;;;;;;4985605;28;20131;-75
2024/03/15 08:18:47;;;;;;;3.92;2.90;;;;;;;;;;4967926;28;20039;-75
2024/03/15 08:21:13;;;;;;;3.53;2.72;;;;;;;;;;4966849;28;20432;-75
2024/03/15 08:23:39;;;;;;;4.13;2.70;;;;;;;;;;4981076;28;20160;-75
2024/03/15 08:26:05;;;;;;;3.83;2.78;;;;;;;;;;4965396;28;20039;-75
2024/03/15 08:28:31;;;;;;;3.63;2.60;;;;;;;;;;4971836;28;20281;-75
2024/03/15 08:30:59;;;;;;;3.42;2.60;;;;;;;;;;4975980;28;20035;-75
2024/03/15 08:33:25;;;;;;;3.70;2.83;;;;;;;;;;4992883;28;20039;-74
2024/03/15 08:35:50;;;;;;;3.60;2.90;;;;;;;;;;4986394;28;20446;-75
2024/03/15 08:38:15;;;;;;;3.55;2.42;;;;;;;;;;4968397;28;20038;-75
2024/03/15 08:40:41;;;;;;;3.85;2.63;;;;;;;;;;4987381;28;20472;-75
2024/03/15 08:43:08;;;;;;;4.00;2.60;;;;;;;;;;4986956;28;20558;-75
2024/03/15 08:45:34;;;;;;;4.40;2.72;;;;;;;;;;4988805;28;20056;-75
2024/03/15 08:47:59;;;;;;;4.88;3.08;;;;;;;;;;4989903;28;20479;-77
2024/03/15 08:50:32;;;;;;;4.05;2.85;;;;;;;;;;4985523;28;20035;-77
2024/03/15 08:52:57;;;;;;;3.50;2.80;;;;;;;;;;4975639;28;20045;-77
2024/03/15 08:55:23;;;;;;;3.90;2.88;;;;;;;;;;4974281;28;20607;-75
2024/03/15 08:57:49;;;;;;;3.90;2.65;;;;;;;;;;4997189;28;20052;-76
2024/03/15 09:00:14;;;;;;;3.50;2.88;;;;;;;;;;4950776;28;20524;-75
2024/03/15 09:02:40;;;;;;;4.00;2.88;;;;;;;;;;4986544;28;20046;-74
2024/03/15 09:05:11;;;;;;;3.65;2.60;;;;;;;;;;4987764;28;20498;-74
2024/03/15 09:07:37;;;;;;;3.55;2.60;;;;;;;;;;4980539;28;20034;-77
2024/03/15 09:10:07;;;;;;;4.05;2.67;;;;;;;;;;4960713;28;20035;-77
2024/03/15 09:12:33;;;;;;;3.40;2.58;;;;;;;;;;4974782;28;20436;-76
2024/03/15 09:14:58;;;;;;;3.35;2.40;;;;;;;;;;4974909;28;20042;-76
2024/03/15 09:17:24;;;;;;;3.55;2.70;;;;;;;;;;4985931;28;20094;-75
2024/03/15 09:19:53;;;;;;;4.47;3.10;;;;;;;;;;4972387;28;20057;-76
2024/03/15 09:22:18;;;;;;;4.00;2.73;;;;;;;;;;4989339;28;20038;-75
2024/03/15 09:24:45;;;;;;;3.92;2.70;;;;;;;;;;4971087;28;20121;-76
2024/03/15 09:27:11;;;;;;;3.90;2.60;;;;;;;;;;4982982;28;20035;-75
2024/03/15 09:29:36;;;;;;;4.63;3.13;;;;;;;;;;4963068;28;20045;-75
2024/03/15 09:32:02;;;;;;;3.92;2.85;;;;;;;;;;4977207;28;20031;-76
2024/03/15 09:34:28;;;;;;;3.65;2.88;;;;;;;;;;4962992;28;20560;-76
2024/03/15 09:36:55;;;;;;;4.40;3.10;;;;;;;;;;4983479;28;20500;-75
2024/03/15 09:39:22;;;;;;;4.35;2.92;;;;;;;;;;4981003;28;20061;-75
2024/03/15 09:41:49;;;;;;;3.47;2.88;;;;;;;;;;4970533;28;20125;-75
2024/03/15 09:44:16;;;;;;;3.97;2.90;;;;;;;;;;4984664;28;20506;-76
2024/03/15 09:46:41;;;;;;;3.88;2.85;;;;;;;;;;4951969;28;20042;-75
2024/03/15 09:49:07;;;;;;;4.78;3.20;;;;;;;;;;4977763;28;20041;-77
2024/03/15 09:51:33;;;;;;;3.92;2.85;;;;;;;;;;4980836;28;20114;-77
2024/03/15 09:54:01;;;;;;;3.88;2.85;;;;;;;;;;4988862;28;20109;-76
2024/03/15 09:56:27;;;;;;;4.72;3.72;;;;;;;;;;4960029;28;20077;-76
2024/03/15 09:58:52;;;;;;;4.82;3.60;;;;;;;;;;4984952;28;20128;-76
2024/03/15 10:01:17;;;;;;;4.68;3.63;;;;;;;;;;4961433;28;20058;-76
2024/03/15 10:03:43;;;;;;;17.15;11.77;;;;;;;;;;4985854;28;20423;-74
2024/03/15 10:06:09;;;;;;;20.42;12.90;;;;;;;;;;4965160;28;20073;-77
2024/03/15 10:08:36;;;;;;;11.63;7.43;;;;;;;;;;4980185;28;20046;-77
2024/03/15 10:11:02;;;;;;;9.77;5.68;;;;;;;;;;4969754;28;20507;-77
2024/03/15 10:13:28;;;;;;;8.38;5.25;;;;;;;;;;4979245;28;20516;-77
2024/03/15 10:15:54;;;;;;;6.00;4.68;;;;;;;;;;4979449;28;20207;-76
2024/03/15 10:18:20;;;;;;;13.68;10.90;;;;;;;;;;4965535;28;20292;-76
2024/03/15 10:20:47;;;;;;;12.77;10.48;;;;;;;;;;4981421;28;20458;-76
2024/03/15 10:23:12;;;;;;;10.23;9.07;;;;;;;;;;4982556;28;20057;-77
2024/03/15 10:25:38;;;;;;;10.50;8.90;;;;;;;;;;4964513;28;20038;-76
2024/03/15 10:28:03;;;;;;;12.40;9.38;;;;;;;;;;4986056;28;20037;-77
2024/03/15 10:30:29;;;;;;;11.10;8.98;;;;;;;;;;4981906;28;20060;-76
2024/03/15 10:32:57;;;;;;;12.18;9.07;;;;;;;;;;4982396;28;20380;-77
2024/03/15 10:35:22;;;;;;;10.30;8.80;;;;;;;;;;4965135;28;20073;-75
2024/03/15 10:37:48;;;;;;;10.30;8.23;;;;;;;;;;4979463;28;20065;-75
2024/03/15 10:40:14;;;;;;;9.60;7.85;;;;;;;;;;4961706;28;20097;-78
2024/03/15 10:42:40;;;;;;;9.70;7.93;;;;;;;;;;4963055;28;20521;-86
2024/03/15 10:45:06;;;;;;;9.90;7.65;;;;;;;;;;4986838;28;20056;-85
2024/03/15 10:47:31;;;;;;;8.57;7.43;;;;;;;;;;4975349;28;20555;-83
2024/03/15 10:49:59;;;;;;;9.73;7.68;;;;;;;;;;4978975;28;20118;-86
2024/03/15 10:52:24;;;;;;;11.50;7.78;;;;;;;;;;4967646;28;20077;-77
2024/03/15 10:54:50;;;;;;;10.25;7.43;;;;;;;;;;4969207;28;20038;-83
2024/03/15 10:57:15;;;;;;;8.48;7.20;;;;;;;;;;4956068;28;20049;-76
2024/03/15 10:59:42;;;;;;;9.55;7.72;;;;;;;;;;4984831;28;20038;-78
2024/03/15 11:02:08;;;;;;;7.93;6.70;;;;;;;;;;4982558;28;20528;-78
2024/03/15 11:04:33;;;;;;;10.00;7.28;;;;;;;;;;4969985;28;20088;-78
2024/03/15 11:06:59;;;;;;;8.27;6.93;;;;;;;;;;4964346;28;20575;-77
2024/03/15 11:09:24;;;;;;;8.10;6.80;;;;;;;;;;4978703;28;20156;-78
2024/03/15 11:12:17;;;;;;;8.63;7.13;;;;;;;;;;4982846;28;20039;-78
2024/03/15 11:14:42;;;;;;;8.10;6.55;;;;;;;;;;4979523;28;20047;-78
2024/03/15 11:17:08;;;;;;;8.55;6.88;;;;;;;;;;4962781;28;20515;-77
2024/03/15 11:19:41;;;;;;;8.75;6.40;;;;;;;;;;4948437;28;20038;-76
2024/03/15 11:22:10;;;;;;;9.85;6.80;;;;;;;;;;4983753;28;20092;-78
2024/03/15 11:24:39;;;;;;;8.07;6.28;;;;;;;;;;4961791;28;20539;-79
2024/03/15 11:27:04;;;;;;;8.33;6.30;;;;;;;;;;4963242;28;20041;-80
2024/03/15 11:29:34;;;;;;;7.38;6.03;;;;;;;;;;4961887;28;21359;-79
2024/03/15 11:31:59;;;;;;;7.85;5.72;;;;;;;;;;4958551;28;20038;-76
2024/03/15 11:34:25;;;;;;;8.40;6.65;;;;;;;;;;4964039;28;20487;-75
2024/03/15 11:36:51;;;;;;;7.10;6.32;;;;;;;;;;4977969;28;20030;-75
2024/03/15 11:39:16;;;;;;;8.13;6.40;;;;;;;;;;4964634;28;20054;-75
2024/03/15 11:41:42;;;;;;;7.82;5.53;;;;;;;;;;4979742;28;20030;-76
2024/03/15 11:44:09;;;;;;;7.90;6.50;;;;;;;;;;4978732;28;20038;-76
2024/03/15 11:46:34;;;;;;;8.10;5.93;;;;;;;;;;4962000;28;20027;-76
2024/03/15 11:49:05;;;;;;;7.60;6.00;;;;;;;;;;4980871;28;20038;-77
2024/03/15 11:51:30;;;;;;;7.35;5.65;;;;;;;;;;4984448;28;20038;-77
2024/03/15 11:53:56;;;;;;;7.80;5.60;;;;;;;;;;4965587;28;20026;-78
2024/03/15 11:56:21;;;;;;;9.00;6.60;;;;;;;;;;4983512;28;20195;-78
2024/03/15 11:58:48;;;;;;;8.07;5.88;;;;;;;;;;4982946;28;20023;-77
2024/03/15 12:01:14;;;;;;;10.15;5.78;;;;;;;;;;4962999;28;20018;-74
2024/03/15 12:03:39;;;;;;;7.35;5.15;;;;;;;;;;4979918;28;20018;-75
2024/03/15 12:06:06;;;;;;;7.38;5.35;;;;;;;;;;4959985;28;20097;-75
2024/03/15 12:08:32;;;;;;;6.78;5.07;;;;;;;;;;4963104;28;20447;-75
2024/03/15 12:10:57;;;;;;;7.35;5.22;;;;;;;;;;4983510;28;20058;-75
2024/03/15 12:13:26;;;;;;;7.40;5.18;;;;;;;;;;4982457;28;20026;-75
2024/03/15 12:15:52;;;;;;;8.00;5.72;;;;;;;;;;4984814;28;20030;-75
2024/03/15 12:18:18;;;;;;;8.13;5.07;;;;;;;;;;4983347;28;20140;-75
2024/03/15 12:20:44;;;;;;;6.97;5.50;;;;;;;;;;4961281;28;20491;-75
2024/03/15 12:23:17;;;;;;;5.60;4.78;;;;;;;;;;4984210;28;20105;-75
2024/03/15 12:25:42;;;;;;;5.97;4.38;;;;;;;;;;4980341;28;20042;-75
2024/03/15 12:28:10;;;;;;;6.55;5.00;;;;;;;;;;4962426;28;20046;-75
2024/03/15 12:30:36;;;;;;;6.68;4.97;;;;;;;;;;4980461;28;20034;-73
2024/03/15 12:33:02;;;;;;;6.50;5.13;;;;;;;;;;4981333;28;20061;-75
2024/03/15 12:35:27;;;;;;;6.68;4.93;;;;;;;;;;4964424;28;20546;-75
2024/03/15 12:37:53;;;;;;;5.85;4.43;;;;;;;;;;4960024;28;20045;-75
2024/03/15 12:40:19;;;;;;;6.43;5.00;;;;;;;;;;4979202;28;20043;-75
2024/03/15 12:42:44;;;;;;;6.13;4.93;;;;;;;;;;4963130;28;20041;-75
2024/03/15 12:45:10;;;;;;;6.85;5.05;;;;;;;;;;4980120;28;20411;-75
2024/03/15 12:47:37;;;;;;;6.85;4.78;;;;;;;;;;4979917;28;20516;-75
2024/03/15 12:50:21;;;;;;;5.85;4.70;;;;;;;;;;4962171;28;20064;-75
2024/03/15 12:52:46;;;;;;;5.88;4.75;;;;;;;;;;4980615;28;20041;-75
2024/03/15 12:55:14;;;;;;;6.32;5.15;;;;;;;;;;4978157;28;20049;-77
2024/03/15 12:57:40;;;;;;;8.00;4.97;;;;;;;;;;4978769;28;20045;-74
2024/03/15 13:00:11;;;;;;;6.70;4.57;;;;;;;;;;4979422;28;20034;-73
2024/03/15 13:02:36;;;;;;;6.90;4.70;;;;;;;;;;4981310;28;20045;-75
2024/03/15 13:05:02;;;;;;;5.65;4.55;;;;;;;;;;4960605;28;20030;-76
2024/03/15 13:07:27;;;;;;;5.93;4.50;;;;;;;;;;4976674;28;20046;-75
2024/03/15 13:09:53;;;;;;;6.57;4.95;;;;;;;;;;4962767;28;20420;-75
2024/03/15 13:12:18;;;;;;;6.20;4.43;;;;;;;;;;4990671;28;20038;-75
2024/03/15 13:14:44;;;;;;;6.45;4.68;;;;;;;;;;4987022;28;20038;-75
2024/03/15 13:17:09;;;;;;;5.72;4.72;;;;;;;;;;4982682;28;20034;-75
2024/03/15 13:19:36;;;;;;;6.20;4.53;;;;;;;;;;4989480;28;20384;-75
2024/03/15 13:22:01;;;;;;;6.05;4.43;;;;;;;;;;4988645;28;20041;-75
2024/03/15 13:24:26;;;;;;;6.55;4.50;;;;;;;;;;4969884;28;20039;-75
2024/03/15 13:26:52;;;;;;;5.70;4.45;;;;;;;;;;4984819;28;20034;-75
2024/03/15 13:29:18;;;;;;;6.90;4.43;;;;;;;;;;4974997;28;20127;-75
2024/03/15 13:31:44;;;;;;;5.40;4.40;;;;;;;;;;4962612;28;20063;-75
2024/03/15 13:34:09;;;;;;;5.38;4.47;;;;;;;;;;4987503;28;20056;-75
2024/03/15 13:36:34;;;;;;;7.25;4.47;;;;;;;;;;4988424;28;20112;-76
2024/03/15 13:39:00;;;;;;;7.57;4.82;;;;;;;;;;4957727;28;20031;-75
2024/03/15 13:41:27;;;;;;;6.20;4.47;;;;;;;;;;4981066;28;20121;-74
2024/03/15 13:43:52;;;;;;;6.57;4.47;;;;;;;;;;4963298;28;20069;-74
2024/03/15 13:46:20;;;;;;;5.85;4.53;;;;;;;;;;4984310;28;20069;-74
2024/03/15 13:48:46;;;;;;;5.80;4.18;;;;;;;;;;4954992;28;20034;-76
2024/03/15 13:51:15;;;;;;;4.97;3.95;;;;;;;;;;4986342;28;20533;-75
2024/03/15 13:53:46;;;;;;;5.60;4.32;;;;;;;;;;4990589;28;20042;-75
2024/03/15 13:56:12;;;;;;;5.10;4.03;;;;;;;;;;4977527;28;20122;-75
2024/03/15 13:58:37;;;;;;;5.68;4.43;;;;;;;;;;4974447;28;20482;-76
2024/03/15 14:01:02;;;;;;;5.28;4.13;;;;;;;;;;4969498;28;20416;-76
2024/03/15 14:03:32;;;;;;;5.38;3.90;;;;;;;;;;4957349;28;20045;-76
2024/03/15 14:05:58;;;;;;;6.38;4.47;;;;;;;;;;4982013;28;20070;-76
2024/03/15 14:08:25;;;;;;;6.97;4.30;;;;;;;;;;4986199;28;20062;-76
2024/03/15 14:10:50;;;;;;;5.85;4.38;;;;;;;;;;4967609;28;20046;-75
2024/03/15 14:13:17;;;;;;;5.68;4.25;;;;;;;;;;4974140;28;20042;-75
2024/03/15 14:15:43;;;;;;;5.90;4.35;;;;;;;;;;4963645;28;20046;-75
2024/03/15 14:18:08;;;;;;;5.38;3.88;;;;;;;;;;4972073;28;20037;-75
2024/03/15 14:20:34;;;;;;;6.00;4.35;;;;;;;;;;4944920;28;20058;-75
2024/03/15 14:23:00;;;;;;;5.40;4.30;;;;;;;;;;4973736;28;20037;-76
2024/03/15 14:25:29;;;;;;;4.85;4.30;;;;;;;;;;4991267;28;20038;-76
2024/03/15 14:27:57;;;;;;;4.57;4.00;;;;;;;;;;4984029;28;20039;-76
2024/03/15 14:30:22;;;;;;;5.28;4.03;;;;;;;;;;4967753;28;20042;-76
2024/03/15 14:32:49;;;;;;;4.88;4.07;;;;;;;;;;4955002;28;20516;-75
2024/03/15 14:35:15;;;;;;;6.32;4.05;;;;;;;;;;4977399;28;20049;-76
2024/03/15 14:37:40;;;;;;;5.25;4.30;;;;;;;;;;4965311;28;20034;-76
2024/03/15 14:40:09;;;;;;;5.30;3.60;;;;;;;;;;4987520;28;20476;-76
2024/03/15 14:42:37;;;;;;;5.30;4.28;;;;;;;;;;4975854;28;20721;-76
2024/03/15 14:45:05;;;;;;;4.43;3.78;;;;;;;;;;4994060;28;20046;-76